»·PEaware :: N149CD KWHP-KCMA

N149CD :: KWHP-KCMA

FLIGHT INFORMATION

Flight Status: Arrived
Operator: Privately registered:
United States
More flights under this callsign
Pilot: Nathan E. (30132)
Aircraft: CESSNA 172 SKYHAWK
(C172)
More flights by this aircraft type
Origin: KWHP Whiteman
United States
Destination: KCMA Camarillo
United States
More flights between these airports :: More routes between these airports
Route: +WHP1 VNY+ FIM
File this flight plan on PilotEdge
Remarks: TEC route BURP38
Altitude:
(Current/Filed)
6,000ft
Speed:
(Current/Filed)
110kts
Departed: 11-Dec-20 11:24 AM
Arrived: 11-Dec-20 12:29 PM
Distance/Time
Traveled:
34nm/1:05
Distance/Time
To Go:
Arrived

Flight Plot

Page will automatically refresh every two minutes.

Flight plan parsing failed; only flown route is shown


Map Options




Map Legend


Flown Route
Filed Route
Departure Airport
Arrival Airport
Navaid (VOR, NDB)
Fix

Horizontal Profiles

Position Reports

Time Latitude Longitude Heading Altitude Ground
Speed
11-Dec-20 11:09 34.261139 -118.412545 139 1003ft 0kts
11-Dec-20 11:10 34.261139 -118.412545 139 1003ft 0kts
11-Dec-20 11:11 34.261138 -118.412545 139 1003ft 0kts
11-Dec-20 11:13 34.261138 -118.412545 139 1003ft 0kts
11-Dec-20 11:14 34.261138 -118.412545 139 1003ft 0kts
11-Dec-20 11:15 34.261138 -118.412545 139 1003ft 0kts
11-Dec-20 11:16 34.261138 -118.412545 139 1003ft 0kts
11-Dec-20 11:17 34.261138 -118.412545 139 1003ft 0kts
11-Dec-20 11:18 34.261138 -118.412545 139 1003ft 0kts
11-Dec-20 11:19 34.261138 -118.412545 139 1003ft 0kts
11-Dec-20 11:20 34.259900 -118.413430 137 994ft 9kts
11-Dec-20 11:21 34.256822 -118.409827 171 976ft 6kts
11-Dec-20 11:22 34.256762 -118.409848 224 975ft 0kts
11-Dec-20 11:23 34.255555 -118.408889 174 970ft 0kts
11-Dec-20 11:24 34.260422 -118.414646 318 1041ft 75kts
11-Dec-20 11:25 34.275601 -118.431446 292 1949ft 73kts
11-Dec-20 11:26 34.276245 -118.455876 271 2839ft 73kts
11-Dec-20 11:27 34.275619 -118.480492 271 3679ft 73kts
11-Dec-20 11:28 34.274485 -118.505253 271 4472ft 74kts
11-Dec-20 11:29 34.259884 -118.519003 181 5211ft 89kts
11-Dec-20 11:29 34.243306 -118.526180 272 5792ft 74kts
11-Dec-20 11:31 34.241068 -118.561166 268 5822ft 109kts
11-Dec-20 11:31 34.237592 -118.592361 267 5405ft 112kts
11-Dec-20 11:33 34.232698 -118.636194 267 4819ft 112kts
11-Dec-20 11:33 34.229201 -118.667458 266 4405ft 113kts
11-Dec-20 11:34 34.224976 -118.705020 266 4010ft 106kts
11-Dec-20 11:35 34.219875 -118.742008 263 4010ft 114kts
11-Dec-20 11:36 34.213942 -118.780018 263 4010ft 113kts
11-Dec-20 11:37 34.211278 -118.816990 273 3709ft 108kts
11-Dec-20 11:38 34.211560 -118.853168 274 3310ft 101kts
11-Dec-20 11:39 34.211898 -118.890612 273 3183ft 120kts
11-Dec-20 11:40 34.212254 -118.926896 273 2647ft 102kts
11-Dec-20 11:41 34.212600 -118.962131 273 2096ft 111kts
11-Dec-20 11:42 34.212926 -118.998308 272 1504ft 105kts
11-Dec-20 11:43 34.213236 -119.033460 272 954ft 98kts
11-Dec-20 11:44 34.213472 -119.061417 272 481ft 67kts
11-Dec-20 11:45 34.213530 -119.084150 271 583ft 77kts
11-Dec-20 11:46 34.212846 -119.110524 274 1114ft 91kts
11-Dec-20 11:47 34.212758 -119.137044 272 2074ft 75kts
11-Dec-20 11:48 34.211956 -119.162393 273 2870ft 75kts
11-Dec-20 11:49 34.210851 -119.195408 271 3011ft 116kts
11-Dec-20 11:50 34.209346 -119.234559 272 3009ft 116kts
11-Dec-20 11:51 34.207846 -119.273648 272 3009ft 117kts
11-Dec-20 11:52 34.206317 -119.313211 272 3010ft 117kts
11-Dec-20 11:53 34.204775 -119.352737 272 3009ft 117kts
11-Dec-20 11:54 34.203211 -119.392483 272 3010ft 117kts
11-Dec-20 11:55 34.209752 -119.428504 313 3010ft 110kts
11-Dec-20 11:56 34.225408 -119.459320 260 3010ft 120kts
11-Dec-20 11:57 34.203718 -119.454624 79 3512ft 107kts
11-Dec-20 11:58 34.196455 -119.418365 100 3982ft 113kts
11-Dec-20 11:59 34.187659 -119.381249 99 4490ft 115kts
11-Dec-20 12:00 34.178720 -119.343728 99 4985ft 117kts
11-Dec-20 12:01 34.169297 -119.304310 99 5018ft 123kts
11-Dec-20 12:02 34.159786 -119.264531 99 5028ft 123kts
11-Dec-20 12:03 34.152337 -119.224011 91 5028ft 123kts
11-Dec-20 12:04 34.147900 -119.182286 91 5028ft 125kts
11-Dec-20 12:05 34.143891 -119.140108 91 5028ft 127kts
11-Dec-20 12:06 34.140400 -119.097359 91 5027ft 128kts
11-Dec-20 12:07 34.137519 -119.054112 91 5027ft 129kts
11-Dec-20 12:08 34.135220 -119.010600 91 5027ft 130kts
11-Dec-20 12:09 34.133049 -118.966933 91 5027ft 130kts
11-Dec-20 12:10 34.130952 -118.923304 91 5028ft 130kts
11-Dec-20 12:11 34.129012 -118.879105 91 5021ft 131kts
11-Dec-20 12:12 34.126859 -118.834371 91 5020ft 131kts
11-Dec-20 12:13 34.124387 -118.789966 91 5019ft 130kts
11-Dec-20 12:14 34.140660 -118.760692 11 4746ft 113kts
11-Dec-20 12:15 34.170763 -118.748714 11 4253ft 113kts
11-Dec-20 12:16 34.201124 -118.737135 11 4017ft 114kts
11-Dec-20 12:17 34.229258 -118.735866 296 4016ft 104kts
11-Dec-20 12:18 34.221183 -118.770343 251 4018ft 109kts
11-Dec-20 12:19 34.211693 -118.804048 269 3876ft 99kts
11-Dec-20 12:20 34.211464 -118.838673 272 3383ft 104kts
11-Dec-20 12:21 34.211725 -118.874054 272 3318ft 102kts
11-Dec-20 12:22 34.212074 -118.908329 272 2935ft 102kts
11-Dec-20 12:23 34.212414 -118.943171 271 2399ft 104kts
11-Dec-20 12:24 34.212739 -118.977925 271 1835ft 102kts
11-Dec-20 12:25 34.213048 -119.012127 271 1279ft 101kts
11-Dec-20 12:26 34.213332 -119.044218 271 760ft 85kts
11-Dec-20 12:27 34.213529 -119.068162 271 377ft 59kts
11-Dec-20 12:28 34.213709 -119.087020 270 73ft 38kts
11-Dec-20 12:29 34.212855 -119.090870 200 69ft 2kts
11-Dec-20 12:30 34.210551 -119.089046 88 69ft 4kts

Navigation Log

Ident Type
Flight plan parsing failed, navigation log unavailable